sensor_id;sensor_type;location;lat;lon;timestamp;P1;durP1;ratioP1;P2;durP2;ratioP2
16531;SDS011;66872;63.142;14.482;2023-04-29T00:01:24;1.13;;;1.00;;
16531;SDS011;66872;63.142;14.482;2023-04-29T00:03:50;1.23;;;1.00;;
16531;SDS011;66872;63.142;14.482;2023-04-29T00:06:17;0.90;;;0.90;;
16531;SDS011;66872;63.142;14.482;2023-04-29T00:08:43;1.20;;;1.10;;
16531;SDS011;66872;63.142;14.482;2023-04-29T00:11:08;0.90;;;0.90;;
16531;SDS011;66872;63.142;14.482;2023-04-29T00:13:35;0.97;;;0.93;;
16531;SDS011;66872;63.142;14.482;2023-04-29T00:16:01;1.20;;;1.10;;
16531;SDS011;66872;63.142;14.482;2023-04-29T00:18:27;0.80;;;0.80;;
16531;SDS011;66872;63.142;14.482;2023-04-29T00:20:53;1.20;;;1.10;;
16531;SDS011;66872;63.142;14.482;2023-04-29T00:23:19;1.10;;;1.00;;
16531;SDS011;66872;63.142;14.482;2023-04-29T00:25:44;1.20;;;1.10;;
16531;SDS011;66872;63.142;14.482;2023-04-29T00:28:10;1.20;;;1.00;;
16531;SDS011;66872;63.142;14.482;2023-04-29T00:30:36;1.10;;;1.00;;
16531;SDS011;66872;63.142;14.482;2023-04-29T00:33:01;2.80;;;1.00;;
16531;SDS011;66872;63.142;14.482;2023-04-29T00:35:27;1.10;;;1.00;;
16531;SDS011;66872;63.142;14.482;2023-04-29T00:37:53;1.10;;;1.00;;
16531;SDS011;66872;63.142;14.482;2023-04-29T00:40:19;1.30;;;1.00;;
16531;SDS011;66872;63.142;14.482;2023-04-29T00:42:44;1.07;;;1.00;;
16531;SDS011;66872;63.142;14.482;2023-04-29T00:45:10;1.20;;;1.10;;
16531;SDS011;66872;63.142;14.482;2023-04-29T00:47:37;1.10;;;1.00;;
16531;SDS011;66872;63.142;14.482;2023-04-29T00:50:04;0.90;;;0.90;;
16531;SDS011;66872;63.142;14.482;2023-04-29T00:52:30;1.33;;;1.03;;
16531;SDS011;66872;63.142;14.482;2023-04-29T00:54:56;0.93;;;0.93;;
16531;SDS011;66872;63.142;14.482;2023-04-29T00:57:24;1.20;;;1.10;;
16531;SDS011;66872;63.142;14.482;2023-04-29T00:59:53;1.50;;;1.30;;
16531;SDS011;66872;63.142;14.482;2023-04-29T01:02:19;0.80;;;0.80;;
16531;SDS011;66872;63.142;14.482;2023-04-29T01:04:45;1.03;;;0.93;;
16531;SDS011;66872;63.142;14.482;2023-04-29T01:07:15;0.90;;;0.90;;
16531;SDS011;66872;63.142;14.482;2023-04-29T01:09:52;1.10;;;1.00;;
16531;SDS011;66872;63.142;14.482;2023-04-29T01:12:53;0.93;;;0.93;;
16531;SDS011;66872;63.142;14.482;2023-04-29T01:15:33;1.20;;;1.00;;
16531;SDS011;66872;63.142;14.482;2023-04-29T01:20:49;1.10;;;1.00;;
16531;SDS011;66872;63.142;14.482;2023-04-29T01:23:16;1.00;;;1.00;;
16531;SDS011;66872;63.142;14.482;2023-04-29T01:25:41;0.93;;;0.93;;
16531;SDS011;66872;63.142;14.482;2023-04-29T01:28:11;1.00;;;1.00;;
16531;SDS011;66872;63.142;14.482;2023-04-29T01:33:22;1.20;;;1.00;;
16531;SDS011;66872;63.142;14.482;2023-04-29T01:36:15;1.00;;;0.90;;
16531;SDS011;66872;63.142;14.482;2023-04-29T01:38:49;0.90;;;0.90;;
16531;SDS011;66872;63.142;14.482;2023-04-29T01:41:34;0.90;;;0.90;;
16531;SDS011;66872;63.142;14.482;2023-04-29T01:44:13;1.10;;;1.00;;
16531;SDS011;66872;63.142;14.482;2023-04-29T01:46:43;1.00;;;0.97;;
16531;SDS011;66872;63.142;14.482;2023-04-29T01:49:13;0.80;;;0.80;;
16531;SDS011;66872;63.142;14.482;2023-04-29T01:51:38;1.00;;;1.00;;
16531;SDS011;66872;63.142;14.482;2023-04-29T01:54:04;1.20;;;1.10;;
16531;SDS011;66872;63.142;14.482;2023-04-29T01:56:30;1.00;;;0.90;;
16531;SDS011;66872;63.142;14.482;2023-04-29T01:58:56;1.20;;;1.00;;
16531;SDS011;66872;63.142;14.482;2023-04-29T02:01:21;0.90;;;0.90;;
16531;SDS011;66872;63.142;14.482;2023-04-29T02:03:47;1.43;;;1.33;;
16531;SDS011;66872;63.142;14.482;2023-04-29T02:06:13;1.43;;;1.10;;
16531;SDS011;66872;63.142;14.482;2023-04-29T02:08:38;0.90;;;0.90;;
16531;SDS011;66872;63.142;14.482;2023-04-29T02:11:04;0.90;;;0.90;;
16531;SDS011;66872;63.142;14.482;2023-04-29T02:13:30;0.90;;;0.90;;
16531;SDS011;66872;63.142;14.482;2023-04-29T02:15:56;1.00;;;1.00;;
16531;SDS011;66872;63.142;14.482;2023-04-29T02:18:22;0.90;;;0.90;;
16531;SDS011;66872;63.142;14.482;2023-04-29T02:20:47;0.90;;;0.90;;
16531;SDS011;66872;63.142;14.482;2023-04-29T02:23:14;1.03;;;1.03;;
16531;SDS011;66872;63.142;14.482;2023-04-29T02:25:41;0.90;;;0.90;;
16531;SDS011;66872;63.142;14.482;2023-04-29T02:28:06;1.00;;;1.00;;
16531;SDS011;66872;63.142;14.482;2023-04-29T02:30:33;1.10;;;1.00;;
16531;SDS011;66872;63.142;14.482;2023-04-29T02:32:59;0.90;;;0.90;;
16531;SDS011;66872;63.142;14.482;2023-04-29T02:35:25;0.90;;;0.90;;
16531;SDS011;66872;63.142;14.482;2023-04-29T02:37:50;1.00;;;1.00;;
16531;SDS011;66872;63.142;14.482;2023-04-29T02:40:16;0.80;;;0.80;;
16531;SDS011;66872;63.142;14.482;2023-04-29T02:42:42;1.03;;;0.93;;
16531;SDS011;66872;63.142;14.482;2023-04-29T02:45:08;1.23;;;1.13;;
16531;SDS011;66872;63.142;14.482;2023-04-29T02:47:34;1.00;;;1.00;;
16531;SDS011;66872;63.142;14.482;2023-04-29T02:50:00;0.90;;;0.90;;
16531;SDS011;66872;63.142;14.482;2023-04-29T02:52:26;1.07;;;0.97;;
16531;SDS011;66872;63.142;14.482;2023-04-29T02:54:51;1.10;;;1.00;;
16531;SDS011;66872;63.142;14.482;2023-04-29T02:57:17;1.17;;;1.07;;
16531;SDS011;66872;63.142;14.482;2023-04-29T02:59:43;1.10;;;1.00;;
16531;SDS011;66872;63.142;14.482;2023-04-29T03:02:08;0.67;;;0.67;;
16531;SDS011;66872;63.142;14.482;2023-04-29T03:04:34;0.87;;;0.87;;
16531;SDS011;66872;63.142;14.482;2023-04-29T03:07:00;1.23;;;1.13;;
16531;SDS011;66872;63.142;14.482;2023-04-29T03:09:25;1.00;;;0.90;;
16531;SDS011;66872;63.142;14.482;2023-04-29T03:11:51;1.07;;;0.97;;
16531;SDS011;66872;63.142;14.482;2023-04-29T03:14:17;1.10;;;0.97;;
16531;SDS011;66872;63.142;14.482;2023-04-29T03:16:43;0.90;;;0.90;;
16531;SDS011;66872;63.142;14.482;2023-04-29T03:19:08;1.00;;;1.00;;
16531;SDS011;66872;63.142;14.482;2023-04-29T03:21:34;1.30;;;1.00;;
16531;SDS011;66872;63.142;14.482;2023-04-29T03:24:00;0.80;;;0.80;;
16531;SDS011;66872;63.142;14.482;2023-04-29T03:26:25;1.10;;;1.00;;
16531;SDS011;66872;63.142;14.482;2023-04-29T03:28:51;0.80;;;0.80;;
16531;SDS011;66872;63.142;14.482;2023-04-29T03:31:17;1.23;;;1.00;;
16531;SDS011;66872;63.142;14.482;2023-04-29T03:33:45;1.03;;;1.00;;
16531;SDS011;66872;63.142;14.482;2023-04-29T03:36:10;1.20;;;1.10;;
16531;SDS011;66872;63.142;14.482;2023-04-29T03:38:37;0.90;;;0.90;;
16531;SDS011;66872;63.142;14.482;2023-04-29T03:41:02;0.90;;;0.90;;
16531;SDS011;66872;63.142;14.482;2023-04-29T03:43:28;1.10;;;1.00;;
16531;SDS011;66872;63.142;14.482;2023-04-29T03:45:54;1.20;;;1.10;;
16531;SDS011;66872;63.142;14.482;2023-04-29T03:48:20;1.03;;;0.93;;
16531;SDS011;66872;63.142;14.482;2023-04-29T03:50:45;0.83;;;0.77;;
16531;SDS011;66872;63.142;14.482;2023-04-29T03:53:11;1.20;;;1.10;;
16531;SDS011;66872;63.142;14.482;2023-04-29T03:55:37;0.83;;;0.83;;
16531;SDS011;66872;63.142;14.482;2023-04-29T03:58:03;1.03;;;0.93;;
16531;SDS011;66872;63.142;14.482;2023-04-29T04:00:29;1.20;;;1.10;;
16531;SDS011;66872;63.142;14.482;2023-04-29T04:02:55;0.90;;;0.90;;
16531;SDS011;66872;63.142;14.482;2023-04-29T04:05:22;0.87;;;0.87;;
16531;SDS011;66872;63.142;14.482;2023-04-29T04:07:49;1.13;;;1.07;;
16531;SDS011;66872;63.142;14.482;2023-04-29T04:10:16;1.00;;;1.00;;
16531;SDS011;66872;63.142;14.482;2023-04-29T04:12:42;1.07;;;1.00;;
16531;SDS011;66872;63.142;14.482;2023-04-29T04:15:08;0.90;;;0.90;;
16531;SDS011;66872;63.142;14.482;2023-04-29T04:17:34;0.90;;;0.90;;
16531;SDS011;66872;63.142;14.482;2023-04-29T04:20:00;0.97;;;0.97;;
16531;SDS011;66872;63.142;14.482;2023-04-29T04:22:26;0.93;;;0.87;;
16531;SDS011;66872;63.142;14.482;2023-04-29T04:24:53;1.10;;;1.00;;
16531;SDS011;66872;63.142;14.482;2023-04-29T04:27:19;1.00;;;1.00;;
16531;SDS011;66872;63.142;14.482;2023-04-29T04:29:45;0.90;;;0.90;;
16531;SDS011;66872;63.142;14.482;2023-04-29T04:32:10;0.90;;;0.90;;
16531;SDS011;66872;63.142;14.482;2023-04-29T04:34:36;0.90;;;0.90;;
16531;SDS011;66872;63.142;14.482;2023-04-29T04:37:05;0.80;;;0.80;;
16531;SDS011;66872;63.142;14.482;2023-04-29T04:39:31;1.10;;;1.00;;
16531;SDS011;66872;63.142;14.482;2023-04-29T04:41:56;0.90;;;0.90;;
16531;SDS011;66872;63.142;14.482;2023-04-29T04:44:22;0.90;;;0.90;;
16531;SDS011;66872;63.142;14.482;2023-04-29T04:46:49;1.00;;;1.00;;
16531;SDS011;66872;63.142;14.482;2023-04-29T04:49:15;1.10;;;1.00;;
16531;SDS011;66872;63.142;14.482;2023-04-29T04:51:44;1.40;;;0.97;;
16531;SDS011;66872;63.142;14.482;2023-04-29T04:54:10;0.90;;;0.90;;
16531;SDS011;66872;63.142;14.482;2023-04-29T04:56:36;1.10;;;1.00;;
16531;SDS011;66872;63.142;14.482;2023-04-29T04:59:02;1.00;;;1.00;;
16531;SDS011;66872;63.142;14.482;2023-04-29T05:01:28;0.90;;;0.90;;
16531;SDS011;66872;63.142;14.482;2023-04-29T05:03:54;0.80;;;0.80;;
16531;SDS011;66872;63.142;14.482;2023-04-29T05:06:19;0.83;;;0.80;;
16531;SDS011;66872;63.142;14.482;2023-04-29T05:08:45;1.10;;;1.00;;
16531;SDS011;66872;63.142;14.482;2023-04-29T05:11:15;0.80;;;0.80;;
16531;SDS011;66872;63.142;14.482;2023-04-29T05:13:41;0.90;;;0.90;;
16531;SDS011;66872;63.142;14.482;2023-04-29T05:16:07;0.90;;;0.90;;
16531;SDS011;66872;63.142;14.482;2023-04-29T05:18:32;1.00;;;1.00;;
16531;SDS011;66872;63.142;14.482;2023-04-29T05:20:58;1.00;;;1.00;;
16531;SDS011;66872;63.142;14.482;2023-04-29T05:23:24;1.00;;;1.00;;
16531;SDS011;66872;63.142;14.482;2023-04-29T05:25:50;0.90;;;0.90;;
16531;SDS011;66872;63.142;14.482;2023-04-29T05:28:16;1.20;;;1.10;;
16531;SDS011;66872;63.142;14.482;2023-04-29T05:30:41;0.90;;;0.90;;
16531;SDS011;66872;63.142;14.482;2023-04-29T05:33:08;0.80;;;0.80;;
16531;SDS011;66872;63.142;14.482;2023-04-29T05:35:34;0.90;;;0.90;;
16531;SDS011;66872;63.142;14.482;2023-04-29T05:37:59;1.20;;;1.10;;
16531;SDS011;66872;63.142;14.482;2023-04-29T05:40:25;1.10;;;1.00;;
16531;SDS011;66872;63.142;14.482;2023-04-29T05:42:51;1.20;;;1.10;;
16531;SDS011;66872;63.142;14.482;2023-04-29T05:45:16;0.90;;;0.90;;
16531;SDS011;66872;63.142;14.482;2023-04-29T05:47:42;0.90;;;0.90;;
16531;SDS011;66872;63.142;14.482;2023-04-29T05:50:08;0.83;;;0.83;;
16531;SDS011;66872;63.142;14.482;2023-04-29T05:52:34;1.27;;;1.10;;
16531;SDS011;66872;63.142;14.482;2023-04-29T05:54:59;5.07;;;1.47;;
16531;SDS011;66872;63.142;14.482;2023-04-29T05:57:25;7.70;;;1.80;;
16531;SDS011;66872;63.142;14.482;2023-04-29T05:59:51;4.43;;;1.80;;
16531;SDS011;66872;63.142;14.482;2023-04-29T06:02:19;4.80;;;1.50;;
16531;SDS011;66872;63.142;14.482;2023-04-29T06:04:44;5.30;;;1.63;;
16531;SDS011;66872;63.142;14.482;2023-04-29T06:07:11;3.53;;;1.50;;
16531;SDS011;66872;63.142;14.482;2023-04-29T06:09:38;2.93;;;1.50;;
16531;SDS011;66872;63.142;14.482;2023-04-29T06:12:04;4.50;;;1.50;;
16531;SDS011;66872;63.142;14.482;2023-04-29T06:14:30;2.47;;;1.53;;
16531;SDS011;66872;63.142;14.482;2023-04-29T06:16:55;3.10;;;1.50;;
16531;SDS011;66872;63.142;14.482;2023-04-29T06:19:21;2.37;;;1.40;;
16531;SDS011;66872;63.142;14.482;2023-04-29T06:21:47;2.77;;;1.53;;
16531;SDS011;66872;63.142;14.482;2023-04-29T06:24:13;2.20;;;1.40;;
16531;SDS011;66872;63.142;14.482;2023-04-29T06:26:39;2.37;;;1.37;;
16531;SDS011;66872;63.142;14.482;2023-04-29T06:29:05;3.30;;;1.30;;
16531;SDS011;66872;63.142;14.482;2023-04-29T06:31:30;4.43;;;1.37;;
16531;SDS011;66872;63.142;14.482;2023-04-29T06:33:56;3.40;;;1.30;;
16531;SDS011;66872;63.142;14.482;2023-04-29T06:36:22;2.77;;;1.40;;
16531;SDS011;66872;63.142;14.482;2023-04-29T06:38:48;2.90;;;1.50;;
16531;SDS011;66872;63.142;14.482;2023-04-29T06:41:13;2.40;;;1.30;;
16531;SDS011;66872;63.142;14.482;2023-04-29T06:43:39;1.97;;;1.30;;
16531;SDS011;66872;63.142;14.482;2023-04-29T06:46:07;1.40;;;1.20;;
16531;SDS011;66872;63.142;14.482;2023-04-29T06:48:33;2.43;;;1.47;;
16531;SDS011;66872;63.142;14.482;2023-04-29T06:50:58;2.43;;;1.40;;
16531;SDS011;66872;63.142;14.482;2023-04-29T06:53:24;2.67;;;1.40;;
16531;SDS011;66872;63.142;14.482;2023-04-29T06:55:50;3.17;;;1.27;;
16531;SDS011;66872;63.142;14.482;2023-04-29T06:58:16;1.70;;;1.20;;
16531;SDS011;66872;63.142;14.482;2023-04-29T07:00:43;3.03;;;1.27;;
16531;SDS011;66872;63.142;14.482;2023-04-29T07:03:10;1.37;;;1.20;;
16531;SDS011;66872;63.142;14.482;2023-04-29T07:05:36;2.60;;;1.20;;
16531;SDS011;66872;63.142;14.482;2023-04-29T07:08:10;1.33;;;1.05;;
16531;SDS011;66872;63.142;14.482;2023-04-29T07:10:37;1.73;;;1.27;;
16531;SDS011;66872;63.142;14.482;2023-04-29T07:13:03;3.15;;;1.20;;
16531;SDS011;66872;63.142;14.482;2023-04-29T07:15:33;2.30;;;1.30;;
16531;SDS011;66872;63.142;14.482;2023-04-29T07:17:59;2.17;;;1.50;;
16531;SDS011;66872;63.142;14.482;2023-04-29T07:20:27;2.40;;;1.27;;
16531;SDS011;66872;63.142;14.482;2023-04-29T07:22:52;1.30;;;1.05;;
16531;SDS011;66872;63.142;14.482;2023-04-29T07:25:18;1.88;;;1.50;;
16531;SDS011;66872;63.142;14.482;2023-04-29T07:27:44;1.88;;;1.10;;
16531;SDS011;66872;63.142;14.482;2023-04-29T07:30:10;1.70;;;1.20;;
16531;SDS011;66872;63.142;14.482;2023-04-29T07:32:35;2.33;;;1.20;;
16531;SDS011;66872;63.142;14.482;2023-04-29T07:35:01;1.25;;;0.95;;
16531;SDS011;66872;63.142;14.482;2023-04-29T07:37:27;3.35;;;1.40;;
16531;SDS011;66872;63.142;14.482;2023-04-29T07:39:53;1.83;;;1.20;;
16531;SDS011;66872;63.142;14.482;2023-04-29T07:42:18;1.35;;;1.17;;
16531;SDS011;66872;63.142;14.482;2023-04-29T07:44:44;1.33;;;1.10;;
16531;SDS011;66872;63.142;14.482;2023-04-29T07:47:13;2.80;;;1.20;;
16531;SDS011;66872;63.142;14.482;2023-04-29T07:49:38;1.30;;;1.20;;
16531;SDS011;66872;63.142;14.482;2023-04-29T07:52:05;1.65;;;1.00;;
16531;SDS011;66872;63.142;14.482;2023-04-29T07:54:33;1.00;;;1.00;;
16531;SDS011;66872;63.142;14.482;2023-04-29T07:57:00;1.50;;;1.30;;
16531;SDS011;66872;63.142;14.482;2023-04-29T07:59:27;1.10;;;1.00;;
16531;SDS011;66872;63.142;14.482;2023-04-29T08:01:53;2.42;;;1.27;;
16531;SDS011;66872;63.142;14.482;2023-04-29T08:04:19;2.38;;;1.27;;
16531;SDS011;66872;63.142;14.482;2023-04-29T08:06:45;1.55;;;1.15;;
16531;SDS011;66872;63.142;14.482;2023-04-29T08:09:11;1.20;;;1.02;;
16531;SDS011;66872;63.142;14.482;2023-04-29T08:11:37;1.52;;;1.27;;
16531;SDS011;66872;63.142;14.482;2023-04-29T08:14:04;1.48;;;1.00;;
16531;SDS011;66872;63.142;14.482;2023-04-29T08:16:30;1.73;;;1.10;;
16531;SDS011;66872;63.142;14.482;2023-04-29T08:18:56;2.28;;;1.20;;
16531;SDS011;66872;63.142;14.482;2023-04-29T08:21:22;1.50;;;1.23;;
16531;SDS011;66872;63.142;14.482;2023-04-29T08:23:47;1.88;;;1.20;;
16531;SDS011;66872;63.142;14.482;2023-04-29T08:26:13;1.10;;;1.00;;
16531;SDS011;66872;63.142;14.482;2023-04-29T08:28:39;1.90;;;1.00;;
16531;SDS011;66872;63.142;14.482;2023-04-29T08:31:05;1.30;;;1.20;;
16531;SDS011;66872;63.142;14.482;2023-04-29T08:33:33;1.63;;;1.40;;
16531;SDS011;66872;63.142;14.482;2023-04-29T08:35:59;2.08;;;1.10;;
16531;SDS011;66872;63.142;14.482;2023-04-29T08:38:27;1.20;;;1.10;;
16531;SDS011;66872;63.142;14.482;2023-04-29T08:40:54;2.13;;;1.30;;
16531;SDS011;66872;63.142;14.482;2023-04-29T08:43:20;1.17;;;1.00;;
16531;SDS011;66872;63.142;14.482;2023-04-29T08:45:49;2.17;;;1.30;;
16531;SDS011;66872;63.142;14.482;2023-04-29T08:48:15;1.95;;;1.15;;
16531;SDS011;66872;63.142;14.482;2023-04-29T08:50:41;1.40;;;1.08;;
16531;SDS011;66872;63.142;14.482;2023-04-29T08:53:08;1.10;;;1.00;;
16531;SDS011;66872;63.142;14.482;2023-04-29T08:55:36;1.55;;;1.08;;
16531;SDS011;66872;63.142;14.482;2023-04-29T08:58:07;1.27;;;0.98;;
16531;SDS011;66872;63.142;14.482;2023-04-29T09:00:34;0.93;;;0.93;;
16531;SDS011;66872;63.142;14.482;2023-04-29T09:03:02;1.02;;;1.00;;
16531;SDS011;66872;63.142;14.482;2023-04-29T09:05:36;2.45;;;1.27;;
16531;SDS011;66872;63.142;14.482;2023-04-29T09:08:05;3.13;;;1.10;;
16531;SDS011;66872;63.142;14.482;2023-04-29T09:10:32;1.30;;;1.20;;
16531;SDS011;66872;63.142;14.482;2023-04-29T09:13:00;2.55;;;1.25;;
16531;SDS011;66872;63.142;14.482;2023-04-29T09:15:26;0.90;;;0.90;;
16531;SDS011;66872;63.142;14.482;2023-04-29T09:17:51;1.33;;;1.10;;
16531;SDS011;66872;63.142;14.482;2023-04-29T09:22:50;1.55;;;1.30;;
16531;SDS011;66872;63.142;14.482;2023-04-29T09:25:17;1.55;;;1.00;;
16531;SDS011;66872;63.142;14.482;2023-04-29T09:27:43;1.43;;;1.10;;
16531;SDS011;66872;63.142;14.482;2023-04-29T09:30:09;1.92;;;1.35;;
16531;SDS011;66872;63.142;14.482;2023-04-29T09:32:36;1.33;;;0.90;;
16531;SDS011;66872;63.142;14.482;2023-04-29T09:37:51;1.10;;;1.00;;
16531;SDS011;66872;63.142;14.482;2023-04-29T09:40:27;1.17;;;1.00;;
16531;SDS011;66872;63.142;14.482;2023-04-29T09:42:57;1.23;;;1.13;;
16531;SDS011;66872;63.142;14.482;2023-04-29T09:45:36;1.27;;;1.10;;
16531;SDS011;66872;63.142;14.482;2023-04-29T09:48:07;1.00;;;1.00;;
16531;SDS011;66872;63.142;14.482;2023-04-29T09:50:36;1.10;;;0.80;;
16531;SDS011;66872;63.142;14.482;2023-04-29T09:53:04;1.35;;;1.10;;
16531;SDS011;66872;63.142;14.482;2023-04-29T09:55:56;1.23;;;1.10;;
16531;SDS011;66872;63.142;14.482;2023-04-29T09:58:33;1.00;;;1.00;;
16531;SDS011;66872;63.142;14.482;2023-04-29T10:01:02;2.37;;;0.97;;
16531;SDS011;66872;63.142;14.482;2023-04-29T10:03:32;1.23;;;0.98;;
16531;SDS011;66872;63.142;14.482;2023-04-29T10:05:59;1.70;;;1.13;;
16531;SDS011;66872;63.142;14.482;2023-04-29T10:08:28;1.57;;;1.00;;
16531;SDS011;66872;63.142;14.482;2023-04-29T10:11:01;0.90;;;0.90;;
16531;SDS011;66872;63.142;14.482;2023-04-29T10:13:27;1.17;;;1.07;;
16531;SDS011;66872;63.142;14.482;2023-04-29T10:16:00;1.33;;;1.10;;
16531;SDS011;66872;63.142;14.482;2023-04-29T10:18:47;0.90;;;0.90;;
16531;SDS011;66872;63.142;14.482;2023-04-29T10:21:16;1.20;;;1.10;;
16531;SDS011;66872;63.142;14.482;2023-04-29T10:23:44;1.03;;;1.00;;
16531;SDS011;66872;63.142;14.482;2023-04-29T10:26:11;0.73;;;0.73;;
16531;SDS011;66872;63.142;14.482;2023-04-29T10:28:38;1.00;;;0.90;;
16531;SDS011;66872;63.142;14.482;2023-04-29T10:31:07;1.20;;;1.10;;
16531;SDS011;66872;63.142;14.482;2023-04-29T10:33:33;1.00;;;1.00;;
16531;SDS011;66872;63.142;14.482;2023-04-29T10:36:00;1.10;;;1.00;;
16531;SDS011;66872;63.142;14.482;2023-04-29T10:38:29;1.20;;;1.07;;
16531;SDS011;66872;63.142;14.482;2023-04-29T10:41:28;1.00;;;1.00;;
16531;SDS011;66872;63.142;14.482;2023-04-29T10:43:54;0.90;;;0.90;;
16531;SDS011;66872;63.142;14.482;2023-04-29T10:46:23;1.30;;;1.10;;
16531;SDS011;66872;63.142;14.482;2023-04-29T10:49:00;1.27;;;0.90;;
16531;SDS011;66872;63.142;14.482;2023-04-29T10:51:43;1.20;;;1.10;;
16531;SDS011;66872;63.142;14.482;2023-04-29T10:54:13;1.20;;;0.93;;
16531;SDS011;66872;63.142;14.482;2023-04-29T10:56:46;1.90;;;0.97;;
16531;SDS011;66872;63.142;14.482;2023-04-29T10:59:19;0.93;;;0.93;;
16531;SDS011;66872;63.142;14.482;2023-04-29T11:01:52;1.07;;;1.00;;
16531;SDS011;66872;63.142;14.482;2023-04-29T11:04:19;1.17;;;1.07;;
16531;SDS011;66872;63.142;14.482;2023-04-29T11:06:47;0.97;;;0.93;;
16531;SDS011;66872;63.142;14.482;2023-04-29T11:09:23;1.93;;;1.10;;
16531;SDS011;66872;63.142;14.482;2023-04-29T11:11:57;1.00;;;0.90;;
16531;SDS011;66872;63.142;14.482;2023-04-29T11:14:31;1.30;;;1.20;;
16531;SDS011;66872;63.142;14.482;2023-04-29T11:17:07;1.20;;;1.10;;
16531;SDS011;66872;63.142;14.482;2023-04-29T11:19:35;1.10;;;0.87;;
16531;SDS011;66872;63.142;14.482;2023-04-29T11:22:13;0.93;;;0.90;;
16531;SDS011;66872;63.142;14.482;2023-04-29T11:24:48;1.00;;;0.90;;
16531;SDS011;66872;63.142;14.482;2023-04-29T11:27:17;1.00;;;1.00;;
16531;SDS011;66872;63.142;14.482;2023-04-29T11:29:44;1.10;;;1.00;;
16531;SDS011;66872;63.142;14.482;2023-04-29T11:32:11;1.10;;;1.00;;
16531;SDS011;66872;63.142;14.482;2023-04-29T11:34:37;1.10;;;1.00;;
16531;SDS011;66872;63.142;14.482;2023-04-29T11:37:04;0.73;;;0.73;;
16531;SDS011;66872;63.142;14.482;2023-04-29T11:39:32;1.10;;;1.00;;
16531;SDS011;66872;63.142;14.482;2023-04-29T11:42:03;0.93;;;0.90;;
16531;SDS011;66872;63.142;14.482;2023-04-29T11:44:32;0.97;;;0.90;;
16531;SDS011;66872;63.142;14.482;2023-04-29T11:47:07;0.87;;;0.87;;
16531;SDS011;66872;63.142;14.482;2023-04-29T11:49:33;1.10;;;1.00;;
16531;SDS011;66872;63.142;14.482;2023-04-29T11:51:59;0.80;;;0.80;;
16531;SDS011;66872;63.142;14.482;2023-04-29T11:54:26;1.07;;;0.90;;
16531;SDS011;66872;63.142;14.482;2023-04-29T11:56:53;0.83;;;0.80;;
16531;SDS011;66872;63.142;14.482;2023-04-29T11:59:19;1.10;;;1.00;;
16531;SDS011;66872;63.142;14.482;2023-04-29T12:01:47;1.03;;;0.93;;
16531;SDS011;66872;63.142;14.482;2023-04-29T12:04:16;0.97;;;0.97;;
16531;SDS011;66872;63.142;14.482;2023-04-29T12:06:43;1.20;;;1.10;;
16531;SDS011;66872;63.142;14.482;2023-04-29T12:09:10;1.10;;;1.00;;
16531;SDS011;66872;63.142;14.482;2023-04-29T12:11:36;1.10;;;0.80;;
16531;SDS011;66872;63.142;14.482;2023-04-29T12:14:02;0.70;;;0.70;;
16531;SDS011;66872;63.142;14.482;2023-04-29T12:16:30;1.27;;;1.00;;
16531;SDS011;66872;63.142;14.482;2023-04-29T12:18:57;1.10;;;1.00;;
16531;SDS011;66872;63.142;14.482;2023-04-29T12:21:24;1.07;;;1.00;;
16531;SDS011;66872;63.142;14.482;2023-04-29T12:23:51;1.20;;;1.10;;
16531;SDS011;66872;63.142;14.482;2023-04-29T12:26:19;1.00;;;1.00;;
16531;SDS011;66872;63.142;14.482;2023-04-29T12:28:52;0.90;;;0.90;;
16531;SDS011;66872;63.142;14.482;2023-04-29T12:31:18;1.20;;;1.10;;
16531;SDS011;66872;63.142;14.482;2023-04-29T12:33:44;0.93;;;0.90;;
16531;SDS011;66872;63.142;14.482;2023-04-29T12:36:16;0.90;;;0.90;;
16531;SDS011;66872;63.142;14.482;2023-04-29T12:38:43;1.20;;;1.10;;
16531;SDS011;66872;63.142;14.482;2023-04-29T12:41:09;0.80;;;0.80;;
16531;SDS011;66872;63.142;14.482;2023-04-29T12:43:38;0.90;;;0.90;;
16531;SDS011;66872;63.142;14.482;2023-04-29T12:46:06;0.87;;;0.87;;
16531;SDS011;66872;63.142;14.482;2023-04-29T12:48:34;0.90;;;0.90;;
16531;SDS011;66872;63.142;14.482;2023-04-29T12:51:07;1.00;;;1.00;;
16531;SDS011;66872;63.142;14.482;2023-04-29T12:53:36;0.77;;;0.77;;
16531;SDS011;66872;63.142;14.482;2023-04-29T12:56:02;0.90;;;0.90;;
16531;SDS011;66872;63.142;14.482;2023-04-29T12:58:29;1.10;;;1.00;;
16531;SDS011;66872;63.142;14.482;2023-04-29T13:00:56;0.80;;;0.80;;
16531;SDS011;66872;63.142;14.482;2023-04-29T13:03:22;0.90;;;0.90;;
16531;SDS011;66872;63.142;14.482;2023-04-29T13:05:48;0.80;;;0.80;;
16531;SDS011;66872;63.142;14.482;2023-04-29T13:08:17;0.90;;;0.90;;
16531;SDS011;66872;63.142;14.482;2023-04-29T13:10:43;0.60;;;0.60;;
16531;SDS011;66872;63.142;14.482;2023-04-29T13:13:09;0.90;;;0.90;;
16531;SDS011;66872;63.142;14.482;2023-04-29T13:15:35;0.80;;;0.80;;
16531;SDS011;66872;63.142;14.482;2023-04-29T13:18:03;0.90;;;0.90;;
16531;SDS011;66872;63.142;14.482;2023-04-29T13:20:29;0.77;;;0.77;;
16531;SDS011;66872;63.142;14.482;2023-04-29T13:22:55;0.83;;;0.77;;
16531;SDS011;66872;63.142;14.482;2023-04-29T13:25:20;0.90;;;0.90;;
16531;SDS011;66872;63.142;14.482;2023-04-29T13:27:46;0.90;;;0.90;;
16531;SDS011;66872;63.142;14.482;2023-04-29T13:30:12;0.90;;;0.90;;
16531;SDS011;66872;63.142;14.482;2023-04-29T13:32:37;0.97;;;0.97;;
16531;SDS011;66872;63.142;14.482;2023-04-29T13:35:04;0.87;;;0.87;;
16531;SDS011;66872;63.142;14.482;2023-04-29T13:37:31;1.03;;;0.93;;
16531;SDS011;66872;63.142;14.482;2023-04-29T13:39:56;0.90;;;0.90;;
16531;SDS011;66872;63.142;14.482;2023-04-29T13:42:22;1.57;;;0.90;;
16531;SDS011;66872;63.142;14.482;2023-04-29T13:44:48;0.80;;;0.80;;
16531;SDS011;66872;63.142;14.482;2023-04-29T13:47:15;0.87;;;0.87;;
16531;SDS011;66872;63.142;14.482;2023-04-29T13:49:41;0.80;;;0.80;;
16531;SDS011;66872;63.142;14.482;2023-04-29T13:52:10;0.83;;;0.83;;
16531;SDS011;66872;63.142;14.482;2023-04-29T13:54:36;0.97;;;0.97;;
16531;SDS011;66872;63.142;14.482;2023-04-29T13:57:02;0.93;;;0.83;;
16531;SDS011;66872;63.142;14.482;2023-04-29T13:59:32;0.97;;;0.93;;
16531;SDS011;66872;63.142;14.482;2023-04-29T14:01:59;1.20;;;1.10;;
16531;SDS011;66872;63.142;14.482;2023-04-29T14:04:25;0.70;;;0.70;;
16531;SDS011;66872;63.142;14.482;2023-04-29T14:06:52;0.80;;;0.80;;
16531;SDS011;66872;63.142;14.482;2023-04-29T14:09:19;0.80;;;0.80;;
16531;SDS011;66872;63.142;14.482;2023-04-29T14:11:46;1.67;;;1.07;;
16531;SDS011;66872;63.142;14.482;2023-04-29T14:14:13;0.80;;;0.80;;
16531;SDS011;66872;63.142;14.482;2023-04-29T14:16:39;0.90;;;0.90;;
16531;SDS011;66872;63.142;14.482;2023-04-29T14:19:04;0.90;;;0.90;;
16531;SDS011;66872;63.142;14.482;2023-04-29T14:21:31;0.87;;;0.87;;
16531;SDS011;66872;63.142;14.482;2023-04-29T14:24:01;0.80;;;0.80;;
16531;SDS011;66872;63.142;14.482;2023-04-29T14:26:27;0.90;;;0.80;;
16531;SDS011;66872;63.142;14.482;2023-04-29T14:28:53;0.80;;;0.80;;
16531;SDS011;66872;63.142;14.482;2023-04-29T14:31:26;0.90;;;0.90;;
16531;SDS011;66872;63.142;14.482;2023-04-29T14:33:58;0.90;;;0.90;;
16531;SDS011;66872;63.142;14.482;2023-04-29T14:36:24;0.87;;;0.87;;
16531;SDS011;66872;63.142;14.482;2023-04-29T14:38:53;1.00;;;1.00;;
16531;SDS011;66872;63.142;14.482;2023-04-29T14:41:18;0.80;;;0.80;;
16531;SDS011;66872;63.142;14.482;2023-04-29T14:43:47;0.83;;;0.83;;
16531;SDS011;66872;63.142;14.482;2023-04-29T14:46:13;0.90;;;0.90;;